sensor_id;sensor_type;location;lat;lon;timestamp;pressure;altitude;pressure_sealevel;temperature;humidity
31337;BME280;22846;42.654;23.314;2022-12-07T00:01:14;94476.22;;;22.41;52.53
31337;BME280;22846;42.654;23.314;2022-12-07T00:03:40;94471.22;;;22.39;52.44
31337;BME280;22846;42.654;23.314;2022-12-07T00:06:08;94465.53;;;22.34;52.74
31337;BME280;22846;42.654;23.314;2022-12-07T00:08:34;94475.13;;;22.38;52.77
31337;BME280;22846;42.654;23.314;2022-12-07T00:11:07;94470.88;;;22.37;52.84
31337;BME280;22846;42.654;23.314;2022-12-07T00:13:34;94463.25;;;22.32;52.42
31337;BME280;22846;42.654;23.314;2022-12-07T00:16:02;94468.16;;;22.37;52.60
31337;BME280;22846;42.654;23.314;2022-12-07T00:18:29;94458.19;;;22.31;52.83
31337;BME280;22846;42.654;23.314;2022-12-07T00:21:03;94463.56;;;22.34;52.61
31337;BME280;22846;42.654;23.314;2022-12-07T00:23:29;94457.34;;;22.34;52.53
31337;BME280;22846;42.654;23.314;2022-12-07T00:25:54;94448.91;;;22.28;52.56
31337;BME280;22846;42.654;23.314;2022-12-07T00:28:20;94468.69;;;22.32;52.68
31337;BME280;22846;42.654;23.314;2022-12-07T00:30:45;94463.25;;;22.32;52.67
31337;BME280;22846;42.654;23.314;2022-12-07T00:33:10;94469.88;;;22.31;52.57
31337;BME280;22846;42.654;23.314;2022-12-07T00:35:36;94474.53;;;22.31;52.60
31337;BME280;22846;42.654;23.314;2022-12-07T00:38:01;94479.22;;;22.30;52.91
31337;BME280;22846;42.654;23.314;2022-12-07T00:40:27;94457.84;;;22.29;52.84
31337;BME280;22846;42.654;23.314;2022-12-07T00:42:52;94455.97;;;22.26;52.75
31337;BME280;22846;42.654;23.314;2022-12-07T00:45:17;94461.00;;;22.27;52.82
31337;BME280;22846;42.654;23.314;2022-12-07T00:47:43;94471.88;;;22.27;53.01
31337;BME280;22846;42.654;23.314;2022-12-07T00:50:08;94452.16;;;22.23;52.91
31337;BME280;22846;42.654;23.314;2022-12-07T00:52:34;94454.88;;;22.23;52.86
31337;BME280;22846;42.654;23.314;2022-12-07T00:54:59;94456.50;;;22.21;52.90
31337;BME280;22846;42.654;23.314;2022-12-07T00:57:24;94461.50;;;22.23;52.85
31337;BME280;22846;42.654;23.314;2022-12-07T00:59:50;94461.50;;;22.23;53.03
31337;BME280;22846;42.654;23.314;2022-12-07T01:02:15;94452.75;;;22.15;53.24
31337;BME280;22846;42.654;23.314;2022-12-07T01:04:41;94454.38;;;22.13;53.00
31337;BME280;22846;42.654;23.314;2022-12-07T01:07:06;94459.63;;;22.20;52.87
31337;BME280;22846;42.654;23.314;2022-12-07T01:09:31;94456.91;;;22.20;52.98
31337;BME280;22846;42.654;23.314;2022-12-07T01:11:57;94457.34;;;22.18;52.99
31337;BME280;22846;42.654;23.314;2022-12-07T01:14:23;94451.91;;;22.18;53.03
31337;BME280;22846;42.654;23.314;2022-12-07T01:16:48;94452.34;;;22.17;53.12
31337;BME280;22846;42.654;23.314;2022-12-07T01:19:13;94453.53;;;22.16;53.06
31337;BME280;22846;42.654;23.314;2022-12-07T01:21:39;94441.09;;;22.15;53.10
31337;BME280;22846;42.654;23.314;2022-12-07T01:24:08;94444.59;;;22.15;52.86
31337;BME280;22846;42.654;23.314;2022-12-07T01:26:34;94439.56;;;22.14;53.10
31337;BME280;22846;42.654;23.314;2022-12-07T01:28:59;94443.50;;;22.13;53.24
31337;BME280;22846;42.654;23.314;2022-12-07T01:31:26;94426.91;;;22.07;52.97
31337;BME280;22846;42.654;23.314;2022-12-07T01:33:55;94441.19;;;22.11;53.19
31337;BME280;22846;42.654;23.314;2022-12-07T01:38:49;94434.22;;;22.10;53.26
31337;BME280;22846;42.654;23.314;2022-12-07T01:41:19;94441.59;;;22.10;53.23
31337;BME280;22846;42.654;23.314;2022-12-07T01:46:32;94448.25;;;22.09;53.06
31337;BME280;22846;42.654;23.314;2022-12-07T01:48:58;94442.03;;;22.08;53.11
31337;BME280;22846;42.654;23.314;2022-12-07T01:51:25;94428.19;;;22.03;53.40
31337;BME280;22846;42.654;23.314;2022-12-07T01:53:51;94430.47;;;22.04;53.10
31337;BME280;22846;42.654;23.314;2022-12-07T01:56:18;94427.34;;;22.06;53.08
31337;BME280;22846;42.654;23.314;2022-12-07T01:58:46;94425.03;;;22.04;53.20
31337;BME280;22846;42.654;23.314;2022-12-07T02:01:13;94421.13;;;22.05;53.06
31337;BME280;22846;42.654;23.314;2022-12-07T02:03:41;94417.66;;;22.05;53.32
31337;BME280;22846;42.654;23.314;2022-12-07T02:06:08;94413.41;;;22.04;53.37
31337;BME280;22846;42.654;23.314;2022-12-07T02:08:34;94412.63;;;22.03;53.02
31337;BME280;22846;42.654;23.314;2022-12-07T02:11:04;94412.63;;;22.03;53.03
31337;BME280;22846;42.654;23.314;2022-12-07T02:13:33;94422.75;;;22.03;53.40
31337;BME280;22846;42.654;23.314;2022-12-07T02:16:07;94426.66;;;22.02;53.35
31337;BME280;22846;42.654;23.314;2022-12-07T02:29:37;94410.84;;;21.97;53.14
31337;BME280;22846;42.654;23.314;2022-12-07T02:32:13;94414.75;;;21.96;53.46
31337;BME280;22846;42.654;23.314;2022-12-07T02:34:48;94415.09;;;21.98;53.18
31337;BME280;22846;42.654;23.314;2022-12-07T02:40:04;94408.97;;;21.94;53.18
31337;BME280;22846;42.654;23.314;2022-12-07T02:42:36;94413.66;;;21.93;53.23
31337;BME280;22846;42.654;23.314;2022-12-07T02:45:04;94402.53;;;21.88;53.36
31337;BME280;22846;42.654;23.314;2022-12-07T02:47:33;94404.72;;;21.93;53.32
31337;BME280;22846;42.654;23.314;2022-12-07T02:49:59;94375.44;;;21.68;53.46
31337;BME280;22846;42.654;23.314;2022-12-07T02:52:27;94407.44;;;21.93;53.41
31337;BME280;22846;42.654;23.314;2022-12-07T02:54:52;94401.25;;;21.92;53.39
31337;BME280;22846;42.654;23.314;2022-12-07T03:00:16;94386.56;;;21.90;53.32
31337;BME280;22846;42.654;23.314;2022-12-07T03:13:45;94384.66;;;21.87;53.34
31337;BME280;22846;42.654;23.314;2022-12-07T03:16:20;94352.47;;;21.69;53.56
31337;BME280;22846;42.654;23.314;2022-12-07T03:18:58;94376.94;;;21.85;53.89
31337;BME280;22846;42.654;23.314;2022-12-07T03:21:34;94387.03;;;21.85;53.40
31337;BME280;22846;42.654;23.314;2022-12-07T03:24:04;94372.88;;;21.77;53.64
31337;BME280;22846;42.654;23.314;2022-12-07T03:26:35;94374.38;;;21.78;53.26
31337;BME280;22846;42.654;23.314;2022-12-07T03:29:06;94387.47;;;21.83;53.60
31337;BME280;22846;42.654;23.314;2022-12-07T03:31:36;94388.22;;;21.84;53.46
31337;BME280;22846;42.654;23.314;2022-12-07T03:41:43;94383.97;;;21.83;53.42
31337;BME280;22846;42.654;23.314;2022-12-07T03:44:09;94384.41;;;21.81;53.33
31337;BME280;22846;42.654;23.314;2022-12-07T03:46:42;94385.94;;;21.82;53.35
31337;BME280;22846;42.654;23.314;2022-12-07T03:49:51;94384.84;;;21.80;53.52
31337;BME280;22846;42.654;23.314;2022-12-07T03:57:04;94375.25;;;21.75;53.74
31337;BME280;22846;42.654;23.314;2022-12-07T03:59:30;94368.63;;;21.76;53.44
31337;BME280;22846;42.654;23.314;2022-12-07T04:01:59;94377.53;;;21.77;53.82
31337;BME280;22846;42.654;23.314;2022-12-07T04:04:27;94367.94;;;21.72;53.56
31337;BME280;22846;42.654;23.314;2022-12-07T04:06:53;94359.84;;;21.69;53.40
31337;BME280;22846;42.654;23.314;2022-12-07T04:09:18;94363.00;;;21.83;52.99
31337;BME280;22846;42.654;23.314;2022-12-07T04:11:44;94376.50;;;22.03;52.75
31337;BME280;22846;42.654;23.314;2022-12-07T04:14:09;94370.28;;;22.02;52.86
31337;BME280;22846;42.654;23.314;2022-12-07T04:19:10;94379.72;;;22.14;52.89
31337;BME280;22846;42.654;23.314;2022-12-07T04:21:36;94373.81;;;22.15;52.65
31337;BME280;22846;42.654;23.314;2022-12-07T04:24:02;94374.31;;;22.26;52.59
31337;BME280;22846;42.654;23.314;2022-12-07T04:26:28;94371.88;;;22.31;51.76
31337;BME280;22846;42.654;23.314;2022-12-07T04:28:53;94372.88;;;22.37;51.91
31337;BME280;22846;42.654;23.314;2022-12-07T04:31:18;94367.19;;;22.32;51.82
31337;BME280;22846;42.654;23.314;2022-12-07T04:33:44;94381.38;;;22.39;52.15
31337;BME280;22846;42.654;23.314;2022-12-07T04:36:09;94376.38;;;22.38;51.99
31337;BME280;22846;42.654;23.314;2022-12-07T04:38:35;94365.72;;;22.27;52.28
31337;BME280;22846;42.654;23.314;2022-12-07T04:41:07;94384.19;;;22.36;52.33
31337;BME280;22846;42.654;23.314;2022-12-07T04:43:33;94382.47;;;22.42;52.22
31337;BME280;22846;42.654;23.314;2022-12-07T04:45:59;94373.00;;;22.46;51.39
31337;BME280;22846;42.654;23.314;2022-12-07T04:48:25;94384.03;;;22.55;52.13
31337;BME280;22846;42.654;23.314;2022-12-07T04:50:50;94393.31;;;22.58;52.41
31337;BME280;22846;42.654;23.314;2022-12-07T04:53:15;94394.09;;;22.58;52.18
31337;BME280;22846;42.654;23.314;2022-12-07T04:55:41;94387.84;;;22.58;52.99
31337;BME280;22846;42.654;23.314;2022-12-07T04:58:06;94390.19;;;22.59;54.27
31337;BME280;22846;42.654;23.314;2022-12-07T05:00:32;94385.03;;;22.61;54.30
31337;BME280;22846;42.654;23.314;2022-12-07T05:02:57;94384.88;;;22.68;54.11
31337;BME280;22846;42.654;23.314;2022-12-07T05:05:23;94387.47;;;22.72;54.48
31337;BME280;22846;42.654;23.314;2022-12-07T05:07:49;94386.94;;;22.77;54.22
31337;BME280;22846;42.654;23.314;2022-12-07T05:10:15;94384.22;;;22.77;54.86
31337;BME280;22846;42.654;23.314;2022-12-07T05:12:40;94382.78;;;22.72;54.57
31337;BME280;22846;42.654;23.314;2022-12-07T05:15:07;94394.38;;;22.76;54.34
31337;BME280;22846;42.654;23.314;2022-12-07T05:17:33;94395.56;;;22.75;54.38
31337;BME280;22846;42.654;23.314;2022-12-07T05:19:58;94393.34;;;22.70;54.35
31337;BME280;22846;42.654;23.314;2022-12-07T05:22:24;94391.94;;;22.78;54.25
31337;BME280;22846;42.654;23.314;2022-12-07T05:24:53;94384.44;;;22.82;51.98
31337;BME280;22846;42.654;23.314;2022-12-07T05:27:19;94386.63;;;22.87;53.23
31337;BME280;22846;42.654;23.314;2022-12-07T05:29:45;94385.69;;;22.94;52.70
31337;BME280;22846;42.654;23.314;2022-12-07T05:32:10;94386.66;;;23.00;52.79
31337;BME280;22846;42.654;23.314;2022-12-07T05:34:35;94392.38;;;23.05;52.52
31337;BME280;22846;42.654;23.314;2022-12-07T05:37:01;94385.19;;;23.11;52.54
31337;BME280;22846;42.654;23.314;2022-12-07T05:39:26;94375.28;;;23.17;52.62
31337;BME280;22846;42.654;23.314;2022-12-07T05:41:51;94373.19;;;23.21;52.13
31337;BME280;22846;42.654;23.314;2022-12-07T05:44:36;94374.41;;;23.20;52.42
31337;BME280;22846;42.654;23.314;2022-12-07T05:47:01;94368.28;;;23.16;52.00
31337;BME280;22846;42.654;23.314;2022-12-07T05:49:26;94362.16;;;23.12;52.07
31337;BME280;22846;42.654;23.314;2022-12-07T05:51:52;94367.44;;;23.07;52.32
31337;BME280;22846;42.654;23.314;2022-12-07T05:54:17;94367.16;;;23.01;52.36
31337;BME280;22846;42.654;23.314;2022-12-07T05:56:43;94369.22;;;22.97;52.46
31337;BME280;22846;42.654;23.314;2022-12-07T05:59:09;94368.22;;;22.91;52.58
31337;BME280;22846;42.654;23.314;2022-12-07T06:01:59;94374.22;;;22.86;52.59
31337;BME280;22846;42.654;23.314;2022-12-07T06:04:26;94374.75;;;22.81;52.54
31337;BME280;22846;42.654;23.314;2022-12-07T06:06:52;94368.63;;;22.77;52.36
31337;BME280;22846;42.654;23.314;2022-12-07T06:09:19;94368.72;;;22.74;52.36
31337;BME280;22846;42.654;23.314;2022-12-07T06:11:45;94375.06;;;22.71;52.43
31337;BME280;22846;42.654;23.314;2022-12-07T06:14:29;94376.97;;;22.58;38.92
31337;BME280;22846;42.654;23.314;2022-12-07T06:16:54;94372.03;;;22.09;34.91
31337;BME280;22846;42.654;23.314;2022-12-07T06:19:19;94388.28;;;21.48;33.80
31337;BME280;22846;42.654;23.314;2022-12-07T06:21:45;94382.53;;;20.95;38.09
31337;BME280;22846;42.654;23.314;2022-12-07T06:24:14;94388.44;;;20.71;41.18
31337;BME280;22846;42.654;23.314;2022-12-07T06:26:41;94390.03;;;20.68;46.15
31337;BME280;22846;42.654;23.314;2022-12-07T06:29:07;94385.16;;;20.79;49.14
31337;BME280;22846;42.654;23.314;2022-12-07T06:31:32;94390.97;;;21.17;48.67
31337;BME280;22846;42.654;23.314;2022-12-07T06:34:02;94396.28;;;21.39;48.47
31337;BME280;22846;42.654;23.314;2022-12-07T06:36:28;94394.19;;;21.63;48.64
31337;BME280;22846;42.654;23.314;2022-12-07T06:38:54;94392.13;;;21.83;48.20
31337;BME280;22846;42.654;23.314;2022-12-07T06:41:20;94392.47;;;22.01;47.83
31337;BME280;22846;42.654;23.314;2022-12-07T06:43:45;94399.59;;;22.11;48.13
31337;BME280;22846;42.654;23.314;2022-12-07T06:46:11;94404.69;;;22.24;48.24
31337;BME280;22846;42.654;23.314;2022-12-07T06:48:37;94397.03;;;22.35;48.33
31337;BME280;22846;42.654;23.314;2022-12-07T06:51:02;94395.13;;;22.48;48.40
31337;BME280;22846;42.654;23.314;2022-12-07T06:53:27;94397.91;;;22.61;48.30
31337;BME280;22846;42.654;23.314;2022-12-07T06:55:53;94387.66;;;22.65;48.23
31337;BME280;22846;42.654;23.314;2022-12-07T06:58:18;94388.47;;;22.78;48.38
31337;BME280;22846;42.654;23.314;2022-12-07T07:00:45;94407.91;;;22.92;47.84
31337;BME280;22846;42.654;23.314;2022-12-07T07:03:10;94382.38;;;22.86;47.72
31337;BME280;22846;42.654;23.314;2022-12-07T07:05:36;94406.22;;;23.10;47.71
31337;BME280;22846;42.654;23.314;2022-12-07T07:08:03;94402.09;;;23.18;47.67
31337;BME280;22846;42.654;23.314;2022-12-07T07:10:28;94398.75;;;23.27;47.88
31337;BME280;22846;42.654;23.314;2022-12-07T07:12:54;94395.47;;;23.32;47.63
31337;BME280;22846;42.654;23.314;2022-12-07T07:15:19;94396.75;;;23.40;47.76
31337;BME280;22846;42.654;23.314;2022-12-07T07:17:45;94391.09;;;23.47;47.43
31337;BME280;22846;42.654;23.314;2022-12-07T07:20:11;94400.59;;;23.55;47.55
31337;BME280;22846;42.654;23.314;2022-12-07T07:22:36;94396.13;;;23.61;47.24
31337;BME280;22846;42.654;23.314;2022-12-07T07:25:02;94392.31;;;23.71;47.22
31337;BME280;22846;42.654;23.314;2022-12-07T07:27:27;94393.19;;;23.80;47.54
31337;BME280;22846;42.654;23.314;2022-12-07T07:29:53;94408.91;;;23.89;47.05
31337;BME280;22846;42.654;23.314;2022-12-07T07:32:18;94383.03;;;23.81;47.06
31337;BME280;22846;42.654;23.314;2022-12-07T07:34:44;94409.31;;;23.99;46.96
31337;BME280;22846;42.654;23.314;2022-12-07T07:37:09;94407.69;;;24.02;47.18
31337;BME280;22846;42.654;23.314;2022-12-07T07:39:37;94391.41;;;23.98;47.04
31337;BME280;22846;42.654;23.314;2022-12-07T07:42:03;94402.84;;;24.06;46.76
31337;BME280;22846;42.654;23.314;2022-12-07T07:44:28;94405.13;;;24.07;46.79
31337;BME280;22846;42.654;23.314;2022-12-07T07:46:54;94404.25;;;24.10;46.60
31337;BME280;22846;42.654;23.314;2022-12-07T07:49:20;94405.34;;;24.13;46.67
31337;BME280;22846;42.654;23.314;2022-12-07T07:51:45;94402.50;;;24.16;46.65
31337;BME280;22846;42.654;23.314;2022-12-07T07:54:10;94409.81;;;24.19;47.07
31337;BME280;22846;42.654;23.314;2022-12-07T07:56:36;94397.69;;;24.20;46.62
31337;BME280;22846;42.654;23.314;2022-12-07T07:59:01;94400.75;;;24.22;46.88
31337;BME280;22846;42.654;23.314;2022-12-07T08:01:28;94395.59;;;24.24;46.42
31337;BME280;22846;42.654;23.314;2022-12-07T08:03:53;94401.72;;;24.28;46.94
31337;BME280;22846;42.654;23.314;2022-12-07T08:06:19;94399.31;;;24.30;46.39
31337;BME280;22846;42.654;23.314;2022-12-07T08:08:44;94393.84;;;24.30;46.68
31337;BME280;22846;42.654;23.314;2022-12-07T08:11:10;94390.34;;;24.30;46.54
31337;BME280;22846;42.654;23.314;2022-12-07T08:13:35;94403.31;;;24.38;46.73
31337;BME280;22846;42.654;23.314;2022-12-07T08:16:06;94402.53;;;24.38;46.75
31337;BME280;22846;42.654;23.314;2022-12-07T08:18:37;94399.38;;;24.39;46.66
31337;BME280;22846;42.654;23.314;2022-12-07T08:21:04;94388.47;;;24.39;46.39
31337;BME280;22846;42.654;23.314;2022-12-07T08:23:30;94395.66;;;24.46;46.58
31337;BME280;22846;42.654;23.314;2022-12-07T08:26:03;94398.38;;;24.46;46.44
31337;BME280;22846;42.654;23.314;2022-12-07T08:28:29;94371.53;;;24.32;46.54
31337;BME280;22846;42.654;23.314;2022-12-07T08:31:02;94378.28;;;24.40;46.29
31337;BME280;22846;42.654;23.314;2022-12-07T08:33:28;94394.34;;;24.50;46.36
31337;BME280;22846;42.654;23.314;2022-12-07T08:35:54;94401.31;;;24.51;46.18
31337;BME280;22846;42.654;23.314;2022-12-07T08:38:20;94381.25;;;24.45;46.61
31337;BME280;22846;42.654;23.314;2022-12-07T08:40:57;94396.50;;;24.55;46.17
31337;BME280;22846;42.654;23.314;2022-12-07T08:43:22;94396.84;;;24.57;46.10
31337;BME280;22846;42.654;23.314;2022-12-07T08:45:59;94397.13;;;24.59;46.07
31337;BME280;22846;42.654;23.314;2022-12-07T08:48:28;94391.25;;;24.61;46.06
31337;BME280;22846;42.654;23.314;2022-12-07T08:50:54;94380.25;;;24.52;46.09
31337;BME280;22846;42.654;23.314;2022-12-07T08:53:19;94386.09;;;24.63;46.02
31337;BME280;22846;42.654;23.314;2022-12-07T08:55:46;94382.16;;;24.64;46.31
31337;BME280;22846;42.654;23.314;2022-12-07T08:58:11;94383.25;;;24.66;45.98
31337;BME280;22846;42.654;23.314;2022-12-07T09:00:37;94381.25;;;24.67;46.24
31337;BME280;22846;42.654;23.314;2022-12-07T09:03:02;94381.25;;;24.67;46.08
31337;BME280;22846;42.654;23.314;2022-12-07T09:05:28;94358.78;;;24.63;46.40
31337;BME280;22846;42.654;23.314;2022-12-07T09:07:56;94370.78;;;24.65;45.99
31337;BME280;22846;42.654;23.314;2022-12-07T09:10:22;94372.19;;;24.70;45.98
31337;BME280;22846;42.654;23.314;2022-12-07T09:12:48;94372.47;;;24.72;45.95
31337;BME280;22846;42.654;23.314;2022-12-07T09:15:14;94365.81;;;24.73;46.05
31337;BME280;22846;42.654;23.314;2022-12-07T09:17:39;94357.19;;;24.74;44.95
31337;BME280;22846;42.654;23.314;2022-12-07T09:20:05;94357.31;;;24.71;45.54
31337;BME280;22846;42.654;23.314;2022-12-07T09:22:31;94348.34;;;24.70;45.19
31337;BME280;22846;42.654;23.314;2022-12-07T09:24:58;94348.47;;;24.67;45.66
31337;BME280;22846;42.654;23.314;2022-12-07T09:27:24;94360.06;;;24.71;45.25
31337;BME280;22846;42.654;23.314;2022-12-07T09:29:50;94367.81;;;24.72;45.41
31337;BME280;22846;42.654;23.314;2022-12-07T09:32:15;94360.34;;;24.73;45.62
31337;BME280;22846;42.654;23.314;2022-12-07T09:34:41;94330.41;;;24.69;45.82
31337;BME280;22846;42.654;23.314;2022-12-07T09:37:06;94337.16;;;24.77;45.22
31337;BME280;22846;42.654;23.314;2022-12-07T09:39:32;94340.34;;;24.76;45.26
31337;BME280;22846;42.654;23.314;2022-12-07T09:41:58;94334.13;;;24.75;44.99
31337;BME280;22846;42.654;23.314;2022-12-07T09:44:26;94339.59;;;24.75;45.49
31337;BME280;22846;42.654;23.314;2022-12-07T09:46:52;94329.72;;;24.77;45.48
31337;BME280;22846;42.654;23.314;2022-12-07T09:49:23;94327.75;;;24.78;45.16
31337;BME280;22846;42.654;23.314;2022-12-07T09:52:24;94328.94;;;24.77;45.07
31337;BME280;22846;42.654;23.314;2022-12-07T09:54:47;94334.00;;;24.78;45.38
31337;BME280;22846;42.654;23.314;2022-12-07T09:57:13;94309.59;;;24.63;44.84
31337;BME280;22846;42.654;23.314;2022-12-07T09:59:39;94320.75;;;24.77;45.43
31337;BME280;22846;42.654;23.314;2022-12-07T10:02:37;94319.88;;;24.80;45.32
31337;BME280;22846;42.654;23.314;2022-12-07T10:05:10;94322.91;;;24.82;45.44
31337;BME280;22846;42.654;23.314;2022-12-07T10:07:37;94319.28;;;24.85;45.40
31337;BME280;22846;42.654;23.314;2022-12-07T10:10:09;94309.88;;;24.86;45.67
31337;BME280;22846;42.654;23.314;2022-12-07T10:13:15;94300.31;;;24.90;45.50
31337;BME280;22846;42.654;23.314;2022-12-07T10:18:34;94301.72;;;24.95;45.42
31337;BME280;22846;42.654;23.314;2022-12-07T10:24:01;94305.97;;;24.96;44.92
31337;BME280;22846;42.654;23.314;2022-12-07T10:26:36;94284.44;;;24.98;45.68
31337;BME280;22846;42.654;23.314;2022-12-07T10:31:58;94254.72;;;24.78;44.98
31337;BME280;22846;42.654;23.314;2022-12-07T10:34:37;94271.31;;;24.93;44.99
31337;BME280;22846;42.654;23.314;2022-12-07T10:39:51;94275.34;;;25.01;44.79
31337;BME280;22846;42.654;23.314;2022-12-07T10:42:24;94271.38;;;25.02;45.12
31337;BME280;22846;42.654;23.314;2022-12-07T10:45:08;94273.69;;;25.03;44.89
31337;BME280;22846;42.654;23.314;2022-12-07T10:47:49;94265.47;;;25.03;44.69
31337;BME280;22846;42.654;23.314;2022-12-07T11:03:50;94240.25;;;25.08;44.02
31337;BME280;22846;42.654;23.314;2022-12-07T11:09:30;94232.22;;;25.05;37.32
31337;BME280;22846;42.654;23.314;2022-12-07T11:12:24;94233.56;;;24.70;31.66
31337;BME280;22846;42.654;23.314;2022-12-07T11:18:09;94222.75;;;24.36;38.37
31337;BME280;22846;42.654;23.314;2022-12-07T11:21:24;94226.63;;;24.48;38.39
31337;BME280;22846;42.654;23.314;2022-12-07T11:24:15;94222.00;;;24.57;38.58
31337;BME280;22846;42.654;23.314;2022-12-07T11:32:21;94199.75;;;24.77;39.53
31337;BME280;22846;42.654;23.314;2022-12-07T11:37:35;94191.63;;;24.94;39.96
31337;BME280;22846;42.654;23.314;2022-12-07T11:40:13;94191.66;;;25.03;39.84
31337;BME280;22846;42.654;23.314;2022-12-07T11:42:44;94193.66;;;25.12;40.20
31337;BME280;22846;42.654;23.314;2022-12-07T11:45:21;94196.56;;;25.17;40.44
31337;BME280;22846;42.654;23.314;2022-12-07T11:48:18;94188.53;;;25.23;40.49
31337;BME280;22846;42.654;23.314;2022-12-07T11:50:49;94185.19;;;25.28;40.30
31337;BME280;22846;42.654;23.314;2022-12-07T11:53:22;94178.81;;;25.31;40.49
31337;BME280;22846;42.654;23.314;2022-12-07T11:55:56;94186.28;;;25.39;40.55
31337;BME280;22846;42.654;23.314;2022-12-07T12:03:50;94177.94;;;25.52;40.97
31337;BME280;22846;42.654;23.314;2022-12-07T12:06:16;94166.38;;;25.57;40.90
31337;BME280;22846;42.654;23.314;2022-12-07T12:09:10;94165.34;;;25.63;40.94
31337;BME280;22846;42.654;23.314;2022-12-07T12:25:04;94142.97;;;25.73;41.09
31337;BME280;22846;42.654;23.314;2022-12-07T12:27:37;94143.78;;;25.83;41.35
31337;BME280;22846;42.654;23.314;2022-12-07T12:30:06;94142.41;;;25.87;41.41
31337;BME280;22846;42.654;23.314;2022-12-07T12:32:43;94126.56;;;25.82;41.85
31337;BME280;22846;42.654;23.314;2022-12-07T12:35:30;94127.00;;;25.72;41.72
31337;BME280;22846;42.654;23.314;2022-12-07T12:38:34;94126.72;;;25.61;41.75
31337;BME280;22846;42.654;23.314;2022-12-07T12:44:01;94121.72;;;25.51;41.74
31337;BME280;22846;42.654;23.314;2022-12-07T12:49:30;94131.72;;;25.62;41.72
31337;BME280;22846;42.654;23.314;2022-12-07T12:51:59;94128.97;;;25.71;41.56
31337;BME280;22846;42.654;23.314;2022-12-07T12:54:27;94125.50;;;25.80;41.88
31337;BME280;22846;42.654;23.314;2022-12-07T12:57:17;94127.94;;;25.87;42.74
31337;BME280;22846;42.654;23.314;2022-12-07T13:08:11;94133.25;;;25.72;42.04
31337;BME280;22846;42.654;23.314;2022-12-07T13:18:00;94124.72;;;25.88;41.71
31337;BME280;22846;42.654;23.314;2022-12-07T13:26:14;94121.53;;;26.08;41.34
31337;BME280;22846;42.654;23.314;2022-12-07T13:28:48;94125.16;;;26.14;41.28
31337;BME280;22846;42.654;23.314;2022-12-07T13:31:34;94119.50;;;26.17;41.53
31337;BME280;22846;42.654;23.314;2022-12-07T13:34:01;94121.50;;;26.17;41.36
31337;BME280;22846;42.654;23.314;2022-12-07T13:36:30;94126.66;;;26.15;41.32
31337;BME280;22846;42.654;23.314;2022-12-07T13:39:17;94124.25;;;26.17;41.47
31337;BME280;22846;42.654;23.314;2022-12-07T13:41:44;94123.16;;;26.14;41.58
31337;BME280;22846;42.654;23.314;2022-12-07T13:44:15;94117.56;;;26.09;41.87
31337;BME280;22846;42.654;23.314;2022-12-07T13:49:45;94113.75;;;25.97;41.81
31337;BME280;22846;42.654;23.314;2022-12-07T13:52:23;94111.19;;;25.94;41.84
31337;BME280;22846;42.654;23.314;2022-12-07T13:54:57;94099.97;;;25.92;42.06
31337;BME280;22846;42.654;23.314;2022-12-07T13:57:25;94096.13;;;25.89;42.15
31337;BME280;22846;42.654;23.314;2022-12-07T13:59:51;94084.13;;;25.87;41.79
31337;BME280;22846;42.654;23.314;2022-12-07T14:02:31;94100.72;;;25.83;41.92
31337;BME280;22846;42.654;23.314;2022-12-07T14:05:12;94107.09;;;25.80;42.09
31337;BME280;22846;42.654;23.314;2022-12-07T14:08:43;94109.25;;;25.76;42.07
31337;BME280;22846;42.654;23.314;2022-12-07T14:18:46;94110.44;;;25.58;42.29
31337;BME280;22846;42.654;23.314;2022-12-07T14:23:39;94119.41;;;25.58;42.38
31337;BME280;22846;42.654;23.314;2022-12-07T14:26:11;94123.06;;;25.55;42.61
31337;BME280;22846;42.654;23.314;2022-12-07T14:28:38;94122.31;;;25.55;42.64
31337;BME280;22846;42.654;23.314;2022-12-07T14:31:11;94124.75;;;25.53;42.68
31337;BME280;22846;42.654;23.314;2022-12-07T14:33:36;94123.97;;;25.52;42.70
31337;BME280;22846;42.654;23.314;2022-12-07T14:36:03;94117.75;;;25.52;42.64
31337;BME280;22846;42.654;23.314;2022-12-07T14:38:28;94121.72;;;25.51;42.71
31337;BME280;22846;42.654;23.314;2022-12-07T14:40:54;94123.66;;;25.50;42.80
31337;BME280;22846;42.654;23.314;2022-12-07T14:43:40;94124.13;;;25.49;43.16
31337;BME280;22846;42.654;23.314;2022-12-07T14:46:06;94123.81;;;25.47;42.62
31337;BME280;22846;42.654;23.314;2022-12-07T14:48:31;94116.81;;;25.46;42.69
31337;BME280;22846;42.654;23.314;2022-12-07T14:50:57;94118.06;;;25.45;42.83
31337;BME280;22846;42.654;23.314;2022-12-07T14:53:28;94105.28;;;25.33;43.01
31337;BME280;22846;42.654;23.314;2022-12-07T14:55:54;94123.53;;;25.45;42.80
31337;BME280;22846;42.654;23.314;2022-12-07T14:58:20;94124.75;;;25.44;43.00
31337;BME280;22846;42.654;23.314;2022-12-07T15:00:45;94118.66;;;25.40;43.00
31337;BME280;22846;42.654;23.314;2022-12-07T15:03:12;94123.66;;;25.41;43.01
31337;BME280;22846;42.654;23.314;2022-12-07T15:05:38;94138.59;;;25.40;42.85
31337;BME280;22846;42.654;23.314;2022-12-07T15:08:04;94137.81;;;25.40;42.81
31337;BME280;22846;42.654;23.314;2022-12-07T15:10:32;94132.34;;;25.40;43.36
31337;BME280;22846;42.654;23.314;2022-12-07T15:12:59;94137.81;;;25.40;43.46
31337;BME280;22846;42.654;23.314;2022-12-07T15:15:45;94141.75;;;25.39;43.42
31337;BME280;22846;42.654;23.314;2022-12-07T15:18:11;94138.41;;;25.35;43.19
31337;BME280;22846;42.654;23.314;2022-12-07T15:20:37;94142.38;;;25.34;43.36
31337;BME280;22846;42.654;23.314;2022-12-07T15:23:02;94143.13;;;25.34;43.13
31337;BME280;22846;42.654;23.314;2022-12-07T15:25:28;94140.38;;;25.34;43.09
31337;BME280;22846;42.654;23.314;2022-12-07T15:27:53;94143.13;;;25.34;43.16